sensor_id;sensor_type;location;lat;lon;timestamp;pressure;altitude;pressure_sealevel;temperature
77789;BMP280;66980;44.384;0.512;2023-03-03T00:01:29;101897.00;;;20.82
77789;BMP280;66980;44.384;0.512;2023-03-03T00:03:57;101899.53;;;20.80
77789;BMP280;66980;44.384;0.512;2023-03-03T00:06:23;101892.63;;;20.73
77789;BMP280;66980;44.384;0.512;2023-03-03T00:08:49;101885.13;;;20.74
77789;BMP280;66980;44.384;0.512;2023-03-03T00:11:15;101882.88;;;20.72
77789;BMP280;66980;44.384;0.512;2023-03-03T00:13:50;101883.16;;;20.68
77789;BMP280;66980;44.384;0.512;2023-03-03T00:16:31;101884.97;;;20.66
77789;BMP280;66980;44.384;0.512;2023-03-03T00:19:00;101879.00;;;20.62
77789;BMP280;66980;44.384;0.512;2023-03-03T00:21:40;101885.06;;;20.60
77789;BMP280;66980;44.384;0.512;2023-03-03T00:27:26;101879.69;;;20.49
77789;BMP280;66980;44.384;0.512;2023-03-03T00:29:54;101876.44;;;20.51
77789;BMP280;66980;44.384;0.512;2023-03-03T00:32:30;101871.22;;;20.47
77789;BMP280;66980;44.384;0.512;2023-03-03T00:35:26;101876.00;;;20.47
77789;BMP280;66980;44.384;0.512;2023-03-03T00:37:57;101871.81;;;20.40
77789;BMP280;66980;44.384;0.512;2023-03-03T00:40:34;101873.09;;;20.39
77789;BMP280;66980;44.384;0.512;2023-03-03T00:43:00;101865.09;;;20.35
77789;BMP280;66980;44.384;0.512;2023-03-03T00:45:29;101868.94;;;20.32
77789;BMP280;66980;44.384;0.512;2023-03-03T00:47:56;101879.22;;;20.32
77789;BMP280;66980;44.384;0.512;2023-03-03T00:50:33;101867.31;;;20.24
77789;BMP280;66980;44.384;0.512;2023-03-03T00:53:13;101873.06;;;20.26
77789;BMP280;66980;44.384;0.512;2023-03-03T00:55:41;101874.06;;;20.23
77789;BMP280;66980;44.384;0.512;2023-03-03T00:58:07;101868.88;;;20.19
77789;BMP280;66980;44.384;0.512;2023-03-03T01:00:34;101874.38;;;20.19
77789;BMP280;66980;44.384;0.512;2023-03-03T01:03:06;101872.66;;;20.16
77789;BMP280;66980;44.384;0.512;2023-03-03T01:05:32;101876.50;;;20.13
77789;BMP280;66980;44.384;0.512;2023-03-03T01:07:58;101878.06;;;20.08
77789;BMP280;66980;44.384;0.512;2023-03-03T01:10:26;101875.31;;;20.08
77789;BMP280;66980;44.384;0.512;2023-03-03T01:12:52;101884.81;;;20.07
77789;BMP280;66980;44.384;0.512;2023-03-03T01:15:19;101883.63;;;20.03
77789;BMP280;66980;44.384;0.512;2023-03-03T01:17:45;101880.63;;;20.01
77789;BMP280;66980;44.384;0.512;2023-03-03T01:20:13;101878.16;;;19.97
77789;BMP280;66980;44.384;0.512;2023-03-03T01:22:39;101882.72;;;19.94
77789;BMP280;66980;44.384;0.512;2023-03-03T01:25:05;101884.50;;;19.92
77789;BMP280;66980;44.384;0.512;2023-03-03T01:27:30;101877.28;;;19.89
77789;BMP280;66980;44.384;0.512;2023-03-03T01:29:56;101877.59;;;19.85
77789;BMP280;66980;44.384;0.512;2023-03-03T01:32:23;101874.31;;;19.87
77789;BMP280;66980;44.384;0.512;2023-03-03T01:34:49;101873.84;;;19.83
77789;BMP280;66980;44.384;0.512;2023-03-03T01:37:15;101867.91;;;19.79
77789;BMP280;66980;44.384;0.512;2023-03-03T01:39:40;101868.19;;;19.75
77789;BMP280;66980;44.384;0.512;2023-03-03T01:42:06;101867.69;;;19.77
77789;BMP280;66980;44.384;0.512;2023-03-03T01:44:32;101866.47;;;19.72
77789;BMP280;66980;44.384;0.512;2023-03-03T01:47:05;101868.72;;;19.74
77789;BMP280;66980;44.384;0.512;2023-03-03T01:49:40;101867.22;;;19.73
77789;BMP280;66980;44.384;0.512;2023-03-03T01:52:22;101861.78;;;19.67
77789;BMP280;66980;44.384;0.512;2023-03-03T01:54:55;101860.50;;;19.68
77789;BMP280;66980;44.384;0.512;2023-03-03T01:57:32;101860.81;;;19.64
77789;BMP280;66980;44.384;0.512;2023-03-03T02:00:02;101860.59;;;19.62
77789;BMP280;66980;44.384;0.512;2023-03-03T02:02:28;101857.63;;;19.60
77789;BMP280;66980;44.384;0.512;2023-03-03T02:04:54;101858.84;;;19.59
77789;BMP280;66980;44.384;0.512;2023-03-03T02:07:20;101859.38;;;19.58
77789;BMP280;66980;44.384;0.512;2023-03-03T02:10:10;101852.38;;;19.57
77789;BMP280;66980;44.384;0.512;2023-03-03T02:12:44;101847.91;;;19.54
77789;BMP280;66980;44.384;0.512;2023-03-03T02:15:23;101847.69;;;19.52
77789;BMP280;66980;44.384;0.512;2023-03-03T02:17:52;101843.94;;;19.49
77789;BMP280;66980;44.384;0.512;2023-03-03T02:23:06;101847.22;;;19.48
77789;BMP280;66980;44.384;0.512;2023-03-03T02:25:40;101842.00;;;19.44
77789;BMP280;66980;44.384;0.512;2023-03-03T02:28:07;101834.56;;;19.39
77789;BMP280;66980;44.384;0.512;2023-03-03T02:30:36;101829.28;;;19.41
77789;BMP280;66980;44.384;0.512;2023-03-03T02:33:03;101843.56;;;19.39
77789;BMP280;66980;44.384;0.512;2023-03-03T02:35:31;101836.56;;;19.38
77789;BMP280;66980;44.384;0.512;2023-03-03T02:38:06;101835.34;;;19.34
77789;BMP280;66980;44.384;0.512;2023-03-03T02:40:36;101829.84;;;19.34
77789;BMP280;66980;44.384;0.512;2023-03-03T02:43:05;101840.13;;;19.33
77789;BMP280;66980;44.384;0.512;2023-03-03T02:45:31;101827.19;;;19.28
77789;BMP280;66980;44.384;0.512;2023-03-03T02:47:56;101839.16;;;19.31
77789;BMP280;66980;44.384;0.512;2023-03-03T02:50:22;101828.66;;;19.29
77789;BMP280;66980;44.384;0.512;2023-03-03T02:52:48;101832.44;;;19.26
77789;BMP280;66980;44.384;0.512;2023-03-03T02:55:13;101833.69;;;19.25
77789;BMP280;66980;44.384;0.512;2023-03-03T02:57:39;101825.22;;;19.23
77789;BMP280;66980;44.384;0.512;2023-03-03T03:00:05;101836.97;;;19.24
77789;BMP280;66980;44.384;0.512;2023-03-03T03:02:31;101831.22;;;19.21
77789;BMP280;66980;44.384;0.512;2023-03-03T03:04:56;101824.03;;;19.18
77789;BMP280;66980;44.384;0.512;2023-03-03T03:07:22;101826.78;;;19.18
77789;BMP280;66980;44.384;0.512;2023-03-03T03:09:47;101829.28;;;19.16
77789;BMP280;66980;44.384;0.512;2023-03-03T03:12:14;101829.81;;;19.15
77789;BMP280;66980;44.384;0.512;2023-03-03T03:14:40;101829.81;;;19.15
77789;BMP280;66980;44.384;0.512;2023-03-03T03:17:05;101834.56;;;19.14
77789;BMP280;66980;44.384;0.512;2023-03-03T03:19:31;101828.59;;;19.10
77789;BMP280;66980;44.384;0.512;2023-03-03T03:21:56;101832.63;;;19.09
77789;BMP280;66980;44.384;0.512;2023-03-03T03:24:22;101829.88;;;19.09
77789;BMP280;66980;44.384;0.512;2023-03-03T03:26:47;101825.41;;;19.06
77789;BMP280;66980;44.384;0.512;2023-03-03T03:29:13;101820.16;;;19.03
77789;BMP280;66980;44.384;0.512;2023-03-03T03:31:38;101827.16;;;19.04
77789;BMP280;66980;44.384;0.512;2023-03-03T03:34:04;101833.16;;;19.02
77789;BMP280;66980;44.384;0.512;2023-03-03T03:36:29;101836.44;;;19.01
77789;BMP280;66980;44.384;0.512;2023-03-03T03:38:55;101838.66;;;19.02
77789;BMP280;66980;44.384;0.512;2023-03-03T03:41:20;101842.47;;;18.99
77789;BMP280;66980;44.384;0.512;2023-03-03T03:43:46;101833.47;;;18.99
77789;BMP280;66980;44.384;0.512;2023-03-03T03:46:11;101827.50;;;18.94
77789;BMP280;66980;44.384;0.512;2023-03-03T03:48:37;101844.25;;;18.97
77789;BMP280;66980;44.384;0.512;2023-03-03T03:51:02;101837.00;;;18.93
77789;BMP280;66980;44.384;0.512;2023-03-03T03:53:28;101826.53;;;18.92
77789;BMP280;66980;44.384;0.512;2023-03-03T03:55:55;101835.53;;;18.92
77789;BMP280;66980;44.384;0.512;2023-03-03T03:58:20;101828.28;;;18.89
77789;BMP280;66980;44.384;0.512;2023-03-03T04:00:46;101834.28;;;18.88
77789;BMP280;66980;44.384;0.512;2023-03-03T04:03:12;101837.81;;;18.88
77789;BMP280;66980;44.384;0.512;2023-03-03T04:05:41;101832.59;;;18.85
77789;BMP280;66980;44.384;0.512;2023-03-03T04:08:08;101838.09;;;18.85
77789;BMP280;66980;44.384;0.512;2023-03-03T04:10:33;101840.09;;;18.84
77789;BMP280;66980;44.384;0.512;2023-03-03T04:12:59;101837.63;;;18.81
77789;BMP280;66980;44.384;0.512;2023-03-03T04:15:24;101837.13;;;18.82
77789;BMP280;66980;44.384;0.512;2023-03-03T04:17:50;101833.91;;;18.78
77789;BMP280;66980;44.384;0.512;2023-03-03T04:20:15;101833.66;;;18.76
77789;BMP280;66980;44.384;0.512;2023-03-03T04:22:42;101832.16;;;18.75
77789;BMP280;66980;44.384;0.512;2023-03-03T04:25:09;101829.19;;;18.73
77789;BMP280;66980;44.384;0.512;2023-03-03T04:27:36;101840.19;;;18.73
77789;BMP280;66980;44.384;0.512;2023-03-03T04:30:04;101839.94;;;18.71
77789;BMP280;66980;44.384;0.512;2023-03-03T04:32:30;101837.72;;;18.69
77789;BMP280;66980;44.384;0.512;2023-03-03T04:34:58;101828.25;;;18.65
77789;BMP280;66980;44.384;0.512;2023-03-03T04:37:23;101837.50;;;18.67
77789;BMP280;66980;44.384;0.512;2023-03-03T04:39:49;101838.25;;;18.62
77789;BMP280;66980;44.384;0.512;2023-03-03T04:42:14;101840.72;;;18.66
77789;BMP280;66980;44.384;0.512;2023-03-03T04:44:40;101837.78;;;18.64
77789;BMP280;66980;44.384;0.512;2023-03-03T04:47:05;101830.00;;;18.62
77789;BMP280;66980;44.384;0.512;2023-03-03T04:49:31;101829.75;;;18.60
77789;BMP280;66980;44.384;0.512;2023-03-03T04:51:56;101831.28;;;18.61
77789;BMP280;66980;44.384;0.512;2023-03-03T04:54:22;101842.78;;;18.60
77789;BMP280;66980;44.384;0.512;2023-03-03T04:56:47;101833.56;;;18.57
77789;BMP280;66980;44.384;0.512;2023-03-03T04:59:13;101836.31;;;18.57
77789;BMP280;66980;44.384;0.512;2023-03-03T05:01:39;101838.84;;;18.55
77789;BMP280;66980;44.384;0.512;2023-03-03T05:04:05;101841.34;;;18.53
77789;BMP280;66980;44.384;0.512;2023-03-03T05:06:30;101837.06;;;18.52
77789;BMP280;66980;44.384;0.512;2023-03-03T05:08:56;101842.34;;;18.50
77789;BMP280;66980;44.384;0.512;2023-03-03T05:11:21;101845.09;;;18.50
77789;BMP280;66980;44.384;0.512;2023-03-03T05:13:47;101836.63;;;18.48
77789;BMP280;66980;44.384;0.512;2023-03-03T05:16:12;101846.13;;;18.47
77789;BMP280;66980;44.384;0.512;2023-03-03T05:18:38;101844.88;;;18.48
77789;BMP280;66980;44.384;0.512;2023-03-03T05:21:04;101838.16;;;18.43
77789;BMP280;66980;44.384;0.512;2023-03-03T05:23:30;101853.41;;;18.44
77789;BMP280;66980;44.384;0.512;2023-03-03T05:25:55;101841.94;;;18.40
77789;BMP280;66980;44.384;0.512;2023-03-03T05:28:21;101847.44;;;18.40
77789;BMP280;66980;44.384;0.512;2023-03-03T05:30:46;101853.69;;;18.41
77789;BMP280;66980;44.384;0.512;2023-03-03T05:33:14;101847.44;;;18.40
77789;BMP280;66980;44.384;0.512;2023-03-03T05:35:39;101851.94;;;18.38
77789;BMP280;66980;44.384;0.512;2023-03-03T05:38:05;101843.47;;;18.36
77789;BMP280;66980;44.384;0.512;2023-03-03T05:40:30;101841.47;;;18.31
77789;BMP280;66980;44.384;0.512;2023-03-03T05:42:56;101841.97;;;18.35
77789;BMP280;66980;44.384;0.512;2023-03-03T05:45:22;101845.97;;;18.34
77789;BMP280;66980;44.384;0.512;2023-03-03T05:47:52;101836.25;;;18.27
77789;BMP280;66980;44.384;0.512;2023-03-03T05:50:20;101850.50;;;18.31
77789;BMP280;66980;44.384;0.512;2023-03-03T05:52:47;101851.72;;;18.30
77789;BMP280;66980;44.384;0.512;2023-03-03T05:55:13;101857.72;;;18.29
77789;BMP280;66980;44.384;0.512;2023-03-03T05:57:39;101852.75;;;18.27
77789;BMP280;66980;44.384;0.512;2023-03-03T06:00:05;101841.28;;;18.17
77789;BMP280;66980;44.384;0.512;2023-03-03T06:02:30;101853.03;;;18.23
77789;BMP280;66980;44.384;0.512;2023-03-03T06:04:56;101862.75;;;18.25
77789;BMP280;66980;44.384;0.512;2023-03-03T06:07:21;101865.25;;;18.22
77789;BMP280;66980;44.384;0.512;2023-03-03T06:09:47;101858.28;;;18.21
77789;BMP280;66980;44.384;0.512;2023-03-03T06:12:12;101860.53;;;18.17
77789;BMP280;66980;44.384;0.512;2023-03-03T06:14:38;101864.28;;;18.20
77789;BMP280;66980;44.384;0.512;2023-03-03T06:17:03;101866.53;;;18.21
77789;BMP280;66980;44.384;0.512;2023-03-03T06:19:30;101865.53;;;18.19
77789;BMP280;66980;44.384;0.512;2023-03-03T06:21:56;101867.03;;;18.20
77789;BMP280;66980;44.384;0.512;2023-03-03T06:24:21;101869.25;;;18.27
77789;BMP280;66980;44.384;0.512;2023-03-03T06:26:49;101869.25;;;18.27
77789;BMP280;66980;44.384;0.512;2023-03-03T06:29:14;101880.09;;;18.55
77789;BMP280;66980;44.384;0.512;2023-03-03T06:31:40;101874.72;;;18.68
77789;BMP280;66980;44.384;0.512;2023-03-03T06:34:05;101878.06;;;18.91
77789;BMP280;66980;44.384;0.512;2023-03-03T06:36:31;101869.94;;;19.05
77789;BMP280;66980;44.384;0.512;2023-03-03T06:38:56;101882.53;;;19.25
77789;BMP280;66980;44.384;0.512;2023-03-03T06:41:22;101877.06;;;19.43
77789;BMP280;66980;44.384;0.512;2023-03-03T06:43:47;101888.88;;;19.63
77789;BMP280;66980;44.384;0.512;2023-03-03T06:46:13;101889.94;;;19.79
77789;BMP280;66980;44.384;0.512;2023-03-03T06:48:38;101891.28;;;19.91
77789;BMP280;66980;44.384;0.512;2023-03-03T06:51:35;101894.28;;;20.12
77789;BMP280;66980;44.384;0.512;2023-03-03T06:54:20;101897.63;;;20.24
77789;BMP280;66980;44.384;0.512;2023-03-03T06:56:48;101898.53;;;20.32
77789;BMP280;66980;44.384;0.512;2023-03-03T06:59:19;101905.66;;;20.40
77789;BMP280;66980;44.384;0.512;2023-03-03T07:01:47;101902.06;;;20.45
77789;BMP280;66980;44.384;0.512;2023-03-03T07:04:21;101904.03;;;20.51
77789;BMP280;66980;44.384;0.512;2023-03-03T07:06:49;101911.47;;;20.56
77789;BMP280;66980;44.384;0.512;2023-03-03T07:09:24;101907.25;;;20.68
77789;BMP280;66980;44.384;0.512;2023-03-03T07:11:51;101901.88;;;20.76
77789;BMP280;66980;44.384;0.512;2023-03-03T07:14:18;101913.56;;;20.82
77789;BMP280;66980;44.384;0.512;2023-03-03T07:16:44;101916.13;;;20.93
77789;BMP280;66980;44.384;0.512;2023-03-03T07:19:22;101915.28;;;21.11
77789;BMP280;66980;44.384;0.512;2023-03-03T07:21:50;101910.13;;;21.21
77789;BMP280;66980;44.384;0.512;2023-03-03T07:24:29;101926.81;;;21.42
77789;BMP280;66980;44.384;0.512;2023-03-03T07:29:28;101924.88;;;21.63
77789;BMP280;66980;44.384;0.512;2023-03-03T07:31:56;101933.34;;;21.79
77789;BMP280;66980;44.384;0.512;2023-03-03T07:34:35;101920.16;;;21.85
77789;BMP280;66980;44.384;0.512;2023-03-03T07:37:09;101935.56;;;21.93
77789;BMP280;66980;44.384;0.512;2023-03-03T07:39:39;101940.50;;;21.87
77789;BMP280;66980;44.384;0.512;2023-03-03T07:44:45;101943.63;;;22.05
77789;BMP280;66980;44.384;0.512;2023-03-03T07:47:27;101941.91;;;22.15
77789;BMP280;66980;44.384;0.512;2023-03-03T07:49:59;101948.06;;;22.21
77789;BMP280;66980;44.384;0.512;2023-03-03T07:52:41;101943.91;;;22.28
77789;BMP280;66980;44.384;0.512;2023-03-03T07:55:25;101957.16;;;22.29
77789;BMP280;66980;44.384;0.512;2023-03-03T07:57:53;101954.28;;;22.35
77789;BMP280;66980;44.384;0.512;2023-03-03T08:02:59;101957.34;;;22.44
77789;BMP280;66980;44.384;0.512;2023-03-03T08:05:37;101960.53;;;22.49
77789;BMP280;66980;44.384;0.512;2023-03-03T08:08:26;101960.53;;;22.49
77789;BMP280;66980;44.384;0.512;2023-03-03T08:10:59;101962.59;;;22.56
77789;BMP280;66980;44.384;0.512;2023-03-03T08:16:17;101962.06;;;22.57
77789;BMP280;66980;44.384;0.512;2023-03-03T08:18:48;101970.59;;;22.59
77789;BMP280;66980;44.384;0.512;2023-03-03T08:21:15;101965.06;;;22.59
77789;BMP280;66980;44.384;0.512;2023-03-03T08:23:42;101970.59;;;22.59
77789;BMP280;66980;44.384;0.512;2023-03-03T08:26:07;101966.09;;;22.56
77789;BMP280;66980;44.384;0.512;2023-03-03T08:28:34;101970.91;;;22.56
77789;BMP280;66980;44.384;0.512;2023-03-03T08:30:59;101964.66;;;22.55
77789;BMP280;66980;44.384;0.512;2023-03-03T08:33:25;101968.69;;;22.54
77789;BMP280;66980;44.384;0.512;2023-03-03T08:35:50;101973.16;;;22.57
77789;BMP280;66980;44.384;0.512;2023-03-03T08:38:18;101974.75;;;22.53
77789;BMP280;66980;44.384;0.512;2023-03-03T08:40:45;101974.22;;;22.54
77789;BMP280;66980;44.384;0.512;2023-03-03T08:43:11;101978.06;;;22.51
77789;BMP280;66980;44.384;0.512;2023-03-03T08:45:45;101977.13;;;22.49
77789;BMP280;66980;44.384;0.512;2023-03-03T08:48:11;101981.19;;;22.48
77789;BMP280;66980;44.384;0.512;2023-03-03T08:50:37;101974.16;;;22.46
77789;BMP280;66980;44.384;0.512;2023-03-03T08:53:03;101980.69;;;22.36
77789;BMP280;66980;44.384;0.512;2023-03-03T08:55:29;101984.50;;;22.33
77789;BMP280;66980;44.384;0.512;2023-03-03T08:57:54;101976.53;;;22.29
77789;BMP280;66980;44.384;0.512;2023-03-03T09:00:20;101982.63;;;22.28
77789;BMP280;66980;44.384;0.512;2023-03-03T09:02:45;101991.66;;;22.28
77789;BMP280;66980;44.384;0.512;2023-03-03T09:05:12;101984.31;;;22.31
77789;BMP280;66980;44.384;0.512;2023-03-03T09:07:40;101985.59;;;22.30
77789;BMP280;66980;44.384;0.512;2023-03-03T09:10:07;101987.81;;;22.31
77789;BMP280;66980;44.384;0.512;2023-03-03T09:12:35;101996.31;;;22.33
77789;BMP280;66980;44.384;0.512;2023-03-03T09:15:19;101981.03;;;22.32
77789;BMP280;66980;44.384;0.512;2023-03-03T09:17:46;101990.34;;;22.29
77789;BMP280;66980;44.384;0.512;2023-03-03T09:20:34;101994.44;;;22.28
77789;BMP280;66980;44.384;0.512;2023-03-03T09:26:38;101994.66;;;22.17
77789;BMP280;66980;44.384;0.512;2023-03-03T09:29:13;101996.28;;;22.12
77789;BMP280;66980;44.384;0.512;2023-03-03T09:31:46;101997.00;;;22.13
77789;BMP280;66980;44.384;0.512;2023-03-03T09:36:59;101989.78;;;22.10
77789;BMP280;66980;44.384;0.512;2023-03-03T09:39:26;101982.34;;;22.05
77789;BMP280;66980;44.384;0.512;2023-03-03T09:48:12;101991.59;;;22.07
77789;BMP280;66980;44.384;0.512;2023-03-03T09:50:59;101996.50;;;22.01
77789;BMP280;66980;44.384;0.512;2023-03-03T09:56:42;102002.56;;;22.00
77789;BMP280;66980;44.384;0.512;2023-03-03T09:59:37;102002.75;;;22.02
77789;BMP280;66980;44.384;0.512;2023-03-03T10:05:01;102004.25;;;22.16
77789;BMP280;66980;44.384;0.512;2023-03-03T10:07:38;102003.59;;;22.23
77789;BMP280;66980;44.384;0.512;2023-03-03T10:12:53;102007.53;;;22.28
77789;BMP280;66980;44.384;0.512;2023-03-03T10:15:36;102001.03;;;22.25
77789;BMP280;66980;44.384;0.512;2023-03-03T10:21:36;102003.25;;;22.40
77789;BMP280;66980;44.384;0.512;2023-03-03T10:24:28;102007.34;;;22.12
77789;BMP280;66980;44.384;0.512;2023-03-03T10:27:56;102007.88;;;22.11
77789;BMP280;66980;44.384;0.512;2023-03-03T10:35:40;102017.78;;;22.40
77789;BMP280;66980;44.384;0.512;2023-03-03T10:43:59;102014.78;;;22.52
77789;BMP280;66980;44.384;0.512;2023-03-03T10:52:37;102017.22;;;22.55
77789;BMP280;66980;44.384;0.512;2023-03-03T10:55:49;102013.56;;;22.60
77789;BMP280;66980;44.384;0.512;2023-03-03T10:57:53;102021.53;;;22.64
77789;BMP280;66980;44.384;0.512;2023-03-03T11:00:43;102016.22;;;22.66
77789;BMP280;66980;44.384;0.512;2023-03-03T11:11:32;102012.75;;;22.52
77789;BMP280;66980;44.384;0.512;2023-03-03T11:14:05;102010.06;;;22.60
77789;BMP280;66980;44.384;0.512;2023-03-03T11:33:35;102002.47;;;22.39
77789;BMP280;66980;44.384;0.512;2023-03-03T11:36:38;102008.78;;;22.40
77789;BMP280;66980;44.384;0.512;2023-03-03T11:39:24;102008.63;;;22.45
77789;BMP280;66980;44.384;0.512;2023-03-03T11:44:49;102011.19;;;22.43
77789;BMP280;66980;44.384;0.512;2023-03-03T11:49:52;102001.16;;;22.54
77789;BMP280;66980;44.384;0.512;2023-03-03T12:00:40;101992.75;;;22.46
77789;BMP280;66980;44.384;0.512;2023-03-03T12:06:37;101989.84;;;22.31
77789;BMP280;66980;44.384;0.512;2023-03-03T12:17:47;101990.19;;;22.14
77789;BMP280;66980;44.384;0.512;2023-03-03T12:20:31;101982.22;;;22.10
77789;BMP280;66980;44.384;0.512;2023-03-03T12:23:25;101982.63;;;22.14
77789;BMP280;66980;44.384;0.512;2023-03-03T12:26:05;101983.72;;;22.11
77789;BMP280;66980;44.384;0.512;2023-03-03T12:28:41;101976.69;;;22.10
77789;BMP280;66980;44.384;0.512;2023-03-03T12:37:00;101971.72;;;21.95
77789;BMP280;66980;44.384;0.512;2023-03-03T12:45:17;101960.75;;;22.16
77789;BMP280;66980;44.384;0.512;2023-03-03T12:47:50;101952.63;;;22.18
77789;BMP280;66980;44.384;0.512;2023-03-03T12:50:26;101952.81;;;22.20
77789;BMP280;66980;44.384;0.512;2023-03-03T12:55:49;101953.66;;;22.29
77789;BMP280;66980;44.384;0.512;2023-03-03T13:03:52;101959.75;;;22.48
77789;BMP280;66980;44.384;0.512;2023-03-03T13:06:27;101944.53;;;22.55
77789;BMP280;66980;44.384;0.512;2023-03-03T13:11:48;101940.56;;;22.63
77789;BMP280;66980;44.384;0.512;2023-03-03T13:17:03;101938.03;;;22.73
77789;BMP280;66980;44.384;0.512;2023-03-03T13:25:02;101934.81;;;22.82
77789;BMP280;66980;44.384;0.512;2023-03-03T13:27:37;101930.41;;;22.87
77789;BMP280;66980;44.384;0.512;2023-03-03T13:35:41;101919.34;;;22.94
77789;BMP280;66980;44.384;0.512;2023-03-03T13:38:33;101924.03;;;23.00
77789;BMP280;66980;44.384;0.512;2023-03-03T13:41:05;101928.28;;;23.01
77789;BMP280;66980;44.384;0.512;2023-03-03T13:43:44;101927.53;;;23.00
77789;BMP280;66980;44.384;0.512;2023-03-03T14:02:18;101919.75;;;22.98
77789;BMP280;66980;44.384;0.512;2023-03-03T14:07:26;101910.00;;;22.97
77789;BMP280;66980;44.384;0.512;2023-03-03T14:12:58;101914.81;;;22.97
77789;BMP280;66980;44.384;0.512;2023-03-03T14:15:33;101917.16;;;22.93
77789;BMP280;66980;44.384;0.512;2023-03-03T14:18:35;101919.44;;;22.74
77789;BMP280;66980;44.384;0.512;2023-03-03T14:21:19;101919.44;;;22.74
77789;BMP280;66980;44.384;0.512;2023-03-03T14:24:09;101917.56;;;22.13
77789;BMP280;66980;44.384;0.512;2023-03-03T14:26:46;101915.03;;;22.02
77789;BMP280;66980;44.384;0.512;2023-03-03T14:29:35;101905.00;;;22.12
77789;BMP280;66980;44.384;0.512;2023-03-03T14:32:04;101901.03;;;22.21
77789;BMP280;66980;44.384;0.512;2023-03-03T14:34:44;101897.00;;;22.22
77789;BMP280;66980;44.384;0.512;2023-03-03T14:37:28;101900.50;;;22.23
77789;BMP280;66980;44.384;0.512;2023-03-03T14:40:16;101900.50;;;22.23
77789;BMP280;66980;44.384;0.512;2023-03-03T14:42:53;101890.41;;;22.25
77789;BMP280;66980;44.384;0.512;2023-03-03T14:45:39;101888.59;;;22.28
77789;BMP280;66980;44.384;0.512;2023-03-03T14:50:39;101881.31;;;22.25
77789;BMP280;66980;44.384;0.512;2023-03-03T14:53:19;101878.56;;;22.25
77789;BMP280;66980;44.384;0.512;2023-03-03T14:55:48;101875.47;;;22.07
77789;BMP280;66980;44.384;0.512;2023-03-03T14:58:42;101875.13;;;22.11
77789;BMP280;66980;44.384;0.512;2023-03-03T15:01:29;101882.00;;;22.17
77789;BMP280;66980;44.384;0.512;2023-03-03T15:06:35;101879.75;;;21.95
77789;BMP280;66980;44.384;0.512;2023-03-03T15:14:51;101884.13;;;21.90
77789;BMP280;66980;44.384;0.512;2023-03-03T15:17:24;101874.91;;;21.88
77789;BMP280;66980;44.384;0.512;2023-03-03T15:20:21;101877.56;;;21.80
77789;BMP280;66980;44.384;0.512;2023-03-03T15:25:48;101881.41;;;21.64
77789;BMP280;66980;44.384;0.512;2023-03-03T15:29:05;101884.72;;;21.62
77789;BMP280;66980;44.384;0.512;2023-03-03T15:31:38;101880.59;;;21.56
77789;BMP280;66980;44.384;0.512;2023-03-03T15:37:37;101879.28;;;21.57
77789;BMP280;66980;44.384;0.512;2023-03-03T15:40:02;101880.59;;;21.56
77789;BMP280;66980;44.384;0.512;2023-03-03T15:42:39;101892.16;;;21.54
77789;BMP280;66980;44.384;0.512;2023-03-03T15:50:27;101884.28;;;21.45
77789;BMP280;66980;44.384;0.512;2023-03-03T16:04:29;101889.09;;;21.31
77789;BMP280;66980;44.384;0.512;2023-03-03T16:07:13;101888.88;;;21.29
77789;BMP280;66980;44.384;0.512;2023-03-03T16:15:28;101889.53;;;21.22
77789;BMP280;66980;44.384;0.512;2023-03-03T16:23:51;101891.44;;;21.14
77789;BMP280;66980;44.384;0.512;2023-03-03T16:34:55;101902.97;;;20.99
77789;BMP280;66980;44.384;0.512;2023-03-03T16:37:31;101903.50;;;20.98
77789;BMP280;66980;44.384;0.512;2023-03-03T16:40:12;101910.81;;;20.95
77789;BMP280;66980;44.384;0.512;2023-03-03T16:42:39;101905.09;;;20.93
77789;BMP280;66980;44.384;0.512;2023-03-03T16:45:08;101906.16;;;20.90
77789;BMP280;66980;44.384;0.512;2023-03-03T16:50:49;101904.75;;;20.83
77789;BMP280;66980;44.384;0.512;2023-03-03T16:58:40;101909.19;;;20.73
77789;BMP280;66980;44.384;0.512;2023-03-03T17:01:20;101908.66;;;20.75
77789;BMP280;66980;44.384;0.512;2023-03-03T17:06:54;101912.09;;;20.62
77789;BMP280;66980;44.384;0.512;2023-03-03T17:09:41;101910.63;;;20.61
77789;BMP280;66980;44.384;0.512;2023-03-03T17:12:17;101907.88;;;20.61
77789;BMP280;66980;44.384;0.512;2023-03-03T17:42:02;101953.28;;;20.41
77789;BMP280;66980;44.384;0.512;2023-03-03T17:44:41;101959.88;;;20.38
77789;BMP280;66980;44.384;0.512;2023-03-03T17:47:15;101960.16;;;20.34
77789;BMP280;66980;44.384;0.512;2023-03-03T17:55:41;101959.63;;;20.36
77789;BMP280;66980;44.384;0.512;2023-03-03T17:58:33;101959.63;;;20.36
77789;BMP280;66980;44.384;0.512;2023-03-03T18:01:21;101968.94;;;20.33
77789;BMP280;66980;44.384;0.512;2023-03-03T18:03:52;101983.69;;;20.35
77789;BMP280;66980;44.384;0.512;2023-03-03T18:09:04;101984.75;;;20.32
77789;BMP280;66980;44.384;0.512;2023-03-03T18:11:55;101991.91;;;20.41
77789;BMP280;66980;44.384;0.512;2023-03-03T18:17:47;101991.53;;;20.50
77789;BMP280;66980;44.384;0.512;2023-03-03T18:22:50;102002.84;;;20.84
77789;BMP280;66980;44.384;0.512;2023-03-03T18:25:24;101992.25;;;20.88
77789;BMP280;66980;44.384;0.512;2023-03-03T18:30:29;102003.53;;;21.04
77789;BMP280;66980;44.384;0.512;2023-03-03T18:33:02;101998.25;;;21.06
77789;BMP280;66980;44.384;0.512;2023-03-03T18:35:43;102010.16;;;21.14
77789;BMP280;66980;44.384;0.512;2023-03-03T18:41:25;102011.78;;;21.23
77789;BMP280;66980;44.384;0.512;2023-03-03T18:43:55;102017.75;;;21.27
77789;BMP280;66980;44.384;0.512;2023-03-03T18:48:54;102010.97;;;21.41
77789;BMP280;66980;44.384;0.512;2023-03-03T19:02:34;102019.34;;;22.15
77789;BMP280;66980;44.384;0.512;2023-03-03T19:05:17;102020.19;;;22.23
77789;BMP280;66980;44.384;0.512;2023-03-03T19:08:03;102027.81;;;22.30
77789;BMP280;66980;44.384;0.512;2023-03-03T19:10:48;102033.84;;;22.42
77789;BMP280;66980;44.384;0.512;2023-03-03T19:16:00;102023.19;;;22.46
77789;BMP280;66980;44.384;0.512;2023-03-03T19:18:27;102029.16;;;22.50